sensor_id;sensor_type;location;lat;lon;timestamp;pressure;altitude;pressure_sealevel;temperature;humidity
75072;BME280;63651;55.728;38.022;2023-12-20T00:02:38;97674.44;;;16.58;nan
75072;BME280;63651;55.728;38.022;2023-12-20T00:07:39;97664.81;;;16.60;nan
75072;BME280;63651;55.728;38.022;2023-12-20T00:12:41;97671.41;;;16.59;nan
75072;BME280;63651;55.728;38.022;2023-12-20T00:17:42;97676.59;;;16.61;nan
75072;BME280;63651;55.728;38.022;2023-12-20T00:22:43;97670.53;;;16.64;nan
75072;BME280;63651;55.728;38.022;2023-12-20T00:27:44;97680.97;;;16.62;nan
75072;BME280;63651;55.728;38.022;2023-12-20T00:32:45;97680.97;;;16.62;nan
75072;BME280;63651;55.728;38.022;2023-12-20T00:37:49;97681.78;;;16.62;nan
75072;BME280;63651;55.728;38.022;2023-12-20T00:42:50;97677.38;;;16.67;nan
75072;BME280;63651;55.728;38.022;2023-12-20T00:47:51;97695.19;;;16.64;nan
75072;BME280;63651;55.728;38.022;2023-12-20T00:52:52;97685.94;;;16.60;nan
75072;BME280;63651;55.728;38.022;2023-12-20T00:57:55;97692.47;;;16.64;nan
75072;BME280;63651;55.728;38.022;2023-12-20T01:02:56;97682.06;;;16.61;nan
75072;BME280;63651;55.728;38.022;2023-12-20T01:07:57;97674.38;;;16.63;nan
75072;BME280;63651;55.728;38.022;2023-12-20T01:12:58;97675.47;;;16.67;nan
75072;BME280;63651;55.728;38.022;2023-12-20T01:17:59;97657.63;;;16.64;nan
75072;BME280;63651;55.728;38.022;2023-12-20T01:23:00;97657.63;;;16.64;nan
75072;BME280;63651;55.728;38.022;2023-12-20T01:28:01;97651.09;;;16.66;nan
75072;BME280;63651;55.728;38.022;2023-12-20T01:33:04;97654.91;;;16.64;nan
75072;BME280;63651;55.728;38.022;2023-12-20T01:38:05;97634.34;;;16.67;nan
75072;BME280;63651;55.728;38.022;2023-12-20T01:43:09;97648.88;;;16.68;nan
75072;BME280;63651;55.728;38.022;2023-12-20T01:48:10;97648.03;;;16.67;nan
75072;BME280;63651;55.728;38.022;2023-12-20T01:53:12;97636.78;;;16.69;nan
75072;BME280;63651;55.728;38.022;2023-12-20T01:58:15;97628.28;;;16.70;nan
75072;BME280;63651;55.728;38.022;2023-12-20T02:03:16;97594.94;;;16.58;nan
75072;BME280;63651;55.728;38.022;2023-12-20T02:08:19;97615.66;;;16.69;nan
75072;BME280;63651;55.728;38.022;2023-12-20T02:13:20;97613.22;;;16.68;nan
75072;BME280;63651;55.728;38.022;2023-12-20T02:18:21;97620.34;;;16.69;nan
75072;BME280;63651;55.728;38.022;2023-12-20T02:23:22;97628.56;;;16.69;nan
75072;BME280;63651;55.728;38.022;2023-12-20T02:28:23;97612.69;;;16.66;nan
75072;BME280;63651;55.728;38.022;2023-12-20T02:33:25;97612.13;;;16.69;nan
75072;BME280;63651;55.728;38.022;2023-12-20T02:38:26;97587.22;;;16.65;nan
75072;BME280;63651;55.728;38.022;2023-12-20T02:43:27;97587.22;;;16.65;nan
75072;BME280;63651;55.728;38.022;2023-12-20T02:48:28;97597.06;;;16.66;nan
75072;BME280;63651;55.728;38.022;2023-12-20T02:53:29;97603.41;;;16.61;nan
75072;BME280;63651;55.728;38.022;2023-12-20T02:58:30;97617.38;;;16.65;nan
75072;BME280;63651;55.728;38.022;2023-12-20T03:03:31;97619.56;;;16.63;nan
75072;BME280;63651;55.728;38.022;2023-12-20T03:08:33;97630.81;;;16.61;nan
75072;BME280;63651;55.728;38.022;2023-12-20T03:13:34;97633.81;;;16.65;nan
75072;BME280;63651;55.728;38.022;2023-12-20T03:18:35;97636.28;;;16.61;nan
75072;BME280;63651;55.728;38.022;2023-12-20T03:23:36;97625.59;;;16.65;nan
75072;BME280;63651;55.728;38.022;2023-12-20T03:28:37;97620.38;;;16.63;nan
75072;BME280;63651;55.728;38.022;2023-12-20T03:33:38;97620.94;;;16.66;nan
75072;BME280;63651;55.728;38.022;2023-12-20T03:38:39;97620.94;;;16.66;nan
75072;BME280;63651;55.728;38.022;2023-12-20T03:43:40;97627.47;;;16.64;nan
75072;BME280;63651;55.728;38.022;2023-12-20T03:48:42;97617.38;;;16.65;nan
75072;BME280;63651;55.728;38.022;2023-12-20T03:53:43;97628.56;;;16.69;nan
75072;BME280;63651;55.728;38.022;2023-12-20T07:49:21;97718.09;;;17.07;nan
75072;BME280;63651;55.728;38.022;2023-12-20T07:59:22;97725.38;;;17.17;nan
75072;BME280;63651;55.728;38.022;2023-12-20T08:04:23;97710.69;;;17.08;nan
75072;BME280;63651;55.728;38.022;2023-12-20T08:09:24;97728.06;;;17.22;nan
75072;BME280;63651;55.728;38.022;2023-12-20T08:14:25;97720.88;;;17.26;nan
75072;BME280;63651;55.728;38.022;2023-12-20T08:24:28;97731.78;;;17.31;nan
75072;BME280;63651;55.728;38.022;2023-12-20T08:29:30;97739.22;;;17.31;nan
75072;BME280;63651;55.728;38.022;2023-12-20T08:34:31;97723.78;;;17.35;nan
75072;BME280;63651;55.728;38.022;2023-12-20T08:39:32;97724.91;;;17.34;nan
75072;BME280;63651;55.728;38.022;2023-12-20T08:44:34;97707.25;;;17.40;nan
75072;BME280;63651;55.728;38.022;2023-12-20T08:49:35;97710.97;;;17.49;nan
75072;BME280;63651;55.728;38.022;2023-12-20T09:04:38;97714.97;;;17.38;nan
75072;BME280;63651;55.728;38.022;2023-12-20T09:09:39;97713.09;;;17.33;nan
75072;BME280;63651;55.728;38.022;2023-12-20T09:14:40;97711.69;;;17.36;nan
75072;BME280;63651;55.728;38.022;2023-12-20T09:19:45;97703.16;;;17.37;nan
75072;BME280;63651;55.728;38.022;2023-12-20T09:24:46;97704.34;;;17.31;nan
75072;BME280;63651;55.728;38.022;2023-12-20T09:29:47;97702.13;;;17.33;nan
75072;BME280;63651;55.728;38.022;2023-12-20T09:34:49;97704.88;;;17.33;nan
75072;BME280;63651;55.728;38.022;2023-12-20T09:39:50;97708.44;;;17.34;nan
75072;BME280;63651;55.728;38.022;2023-12-20T09:44:51;97706.88;;;17.27;nan
75072;BME280;63651;55.728;38.022;2023-12-20T09:49:52;97712.59;;;17.31;nan
75072;BME280;63651;55.728;38.022;2023-12-20T09:54:55;97678.50;;;17.13;nan
75072;BME280;63651;55.728;38.022;2023-12-20T09:59:58;97704.94;;;17.28;nan
75072;BME280;63651;55.728;38.022;2023-12-20T10:04:59;97703.06;;;17.23;nan
75072;BME280;63651;55.728;38.022;2023-12-20T10:30:10;97727.03;;;17.18;nan
75072;BME280;63651;55.728;38.022;2023-12-20T10:35:12;97740.75;;;17.18;nan
75072;BME280;63651;55.728;38.022;2023-12-20T10:40:13;97741.03;;;17.16;nan
75072;BME280;63651;55.728;38.022;2023-12-20T10:45:14;97733.38;;;17.13;nan
75072;BME280;63651;55.728;38.022;2023-12-20T10:50:19;97725.16;;;17.13;nan
75072;BME280;63651;55.728;38.022;2023-12-20T10:55:22;97725.22;;;17.08;nan
75072;BME280;63651;55.728;38.022;2023-12-20T11:00:23;97736.94;;;17.14;nan
75072;BME280;63651;55.728;38.022;2023-12-20T11:10:43;97735.59;;;17.11;nan
75072;BME280;63651;55.728;38.022;2023-12-20T11:15:51;97742.44;;;17.14;nan
75072;BME280;63651;55.728;38.022;2023-12-20T11:20:54;97724.84;;;17.15;nan
75072;BME280;63651;55.728;38.022;2023-12-20T11:25:56;97722.75;;;17.07;nan
75072;BME280;63651;55.728;38.022;2023-12-20T11:31:02;97720.31;;;17.05;nan
75072;BME280;63651;55.728;38.022;2023-12-20T11:41:07;97713.16;;;17.28;nan
75072;BME280;63651;55.728;38.022;2023-12-20T11:56:11;97700.50;;;17.32;nan
75072;BME280;63651;55.728;38.022;2023-12-20T12:11:15;97708.13;;;17.35;nan
75072;BME280;63651;55.728;38.022;2023-12-20T12:16:20;97694.09;;;17.18;nan
75072;BME280;63651;55.728;38.022;2023-12-20T12:21:21;97710.66;;;17.32;nan
75072;BME280;63651;55.728;38.022;2023-12-20T12:31:25;97736.22;;;17.27;nan
75072;BME280;63651;55.728;38.022;2023-12-20T12:36:28;97742.06;;;17.20;nan
75072;BME280;63651;55.728;38.022;2023-12-20T12:41:29;97747.34;;;17.17;nan
75072;BME280;63651;55.728;38.022;2023-12-20T12:46:30;97758.53;;;17.20;nan
75072;BME280;63651;55.728;38.022;2023-12-20T12:51:31;97769.28;;;17.17;nan
75072;BME280;63651;55.728;38.022;2023-12-20T13:01:33;97782.25;;;17.11;nan
75072;BME280;63651;55.728;38.022;2023-12-20T13:06:34;97778.38;;;17.12;nan
75072;BME280;63651;55.728;38.022;2023-12-20T18:17:28;97883.19;;;16.36;nan
75072;BME280;63651;55.728;38.022;2023-12-20T18:22:29;97902.22;;;16.12;nan
75072;BME280;63651;55.728;38.022;2023-12-20T18:27:31;97892.91;;;16.13;nan
75072;BME280;63651;55.728;38.022;2023-12-20T18:32:32;97899.31;;;15.93;nan
75072;BME280;63651;55.728;38.022;2023-12-20T18:37:36;97900.47;;;15.77;nan
75072;BME280;63651;55.728;38.022;2023-12-20T18:42:37;97890.41;;;15.62;nan
75072;BME280;63651;55.728;38.022;2023-12-20T18:47:38;97900.22;;;15.58;nan
75072;BME280;63651;55.728;38.022;2023-12-20T18:52:40;97910.88;;;15.55;nan
75072;BME280;63651;55.728;38.022;2023-12-20T18:57:42;97913.38;;;15.61;nan
75072;BME280;63651;55.728;38.022;2023-12-20T19:02:43;97915.00;;;15.67;nan
75072;BME280;63651;55.728;38.022;2023-12-20T19:07:44;97907.59;;;15.53;nan
75072;BME280;63651;55.728;38.022;2023-12-20T19:12:45;97903.44;;;15.91;nan
75072;BME280;63651;55.728;38.022;2023-12-20T19:17:46;97900.13;;;15.94;nan
75072;BME280;63651;55.728;38.022;2023-12-20T19:22:47;97902.03;;;15.98;nan
75072;BME280;63651;55.728;38.022;2023-12-20T19:27:49;97907.22;;;16.00;nan
75072;BME280;63651;55.728;38.022;2023-12-20T19:32:50;97882.34;;;15.91;nan
75072;BME280;63651;55.728;38.022;2023-12-20T19:37:51;97896.75;;;16.12;nan
75072;BME280;63651;55.728;38.022;2023-12-20T19:42:52;97897.31;;;16.09;nan
75072;BME280;63651;55.728;38.022;2023-12-20T19:47:53;97894.56;;;16.09;nan
75072;BME280;63651;55.728;38.022;2023-12-20T19:52:54;97893.72;;;16.14;nan
75072;BME280;63651;55.728;38.022;2023-12-20T19:57:55;97891.00;;;16.14;nan
75072;BME280;63651;55.728;38.022;2023-12-20T20:02:56;97892.38;;;16.11;nan
75072;BME280;63651;55.728;38.022;2023-12-20T20:07:57;97896.75;;;16.12;nan
75072;BME280;63651;55.728;38.022;2023-12-20T20:12:59;97901.41;;;16.12;nan
75072;BME280;63651;55.728;38.022;2023-12-20T20:18:00;97901.41;;;16.12;nan
75072;BME280;63651;55.728;38.022;2023-12-20T20:23:01;97896.47;;;16.14;nan
75072;BME280;63651;55.728;38.022;2023-12-20T20:28:02;97884.13;;;16.16;nan
75072;BME280;63651;55.728;38.022;2023-12-20T20:33:03;97887.69;;;16.17;nan
75072;BME280;63651;55.728;38.022;2023-12-20T20:38:05;97883.03;;;16.17;nan
75072;BME280;63651;55.728;38.022;2023-12-20T20:43:06;97866.59;;;16.17;nan
75072;BME280;63651;55.728;38.022;2023-12-20T20:48:07;97877.28;;;16.19;nan
75072;BME280;63651;55.728;38.022;2023-12-20T20:53:11;97867.94;;;16.20;nan
75072;BME280;63651;55.728;38.022;2023-12-20T20:58:12;97850.16;;;16.17;nan
75072;BME280;63651;55.728;38.022;2023-12-20T21:03:13;97838.16;;;16.08;nan
75072;BME280;63651;55.728;38.022;2023-12-20T21:08:14;97843.59;;;16.13;nan
75072;BME280;63651;55.728;38.022;2023-12-20T21:13:15;97849.34;;;16.17;nan
75072;BME280;63651;55.728;38.022;2023-12-20T21:18:16;97827.19;;;16.08;nan
75072;BME280;63651;55.728;38.022;2023-12-20T21:23:17;97808.03;;;16.08;nan
75072;BME280;63651;55.728;38.022;2023-12-20T21:28:18;97816.47;;;16.17;nan
75072;BME280;63651;55.728;38.022;2023-12-20T21:33:20;97797.03;;;16.13;nan
75072;BME280;63651;55.728;38.022;2023-12-20T21:38:21;97783.38;;;16.08;nan
75072;BME280;63651;55.728;38.022;2023-12-20T21:43:22;97765.28;;;16.12;nan
75072;BME280;63651;55.728;38.022;2023-12-20T21:48:23;97764.16;;;16.13;nan
75072;BME280;63651;55.728;38.022;2023-12-20T21:53:26;97746.09;;;16.12;nan
75072;BME280;63651;55.728;38.022;2023-12-20T21:58:27;97738.69;;;16.13;nan
75072;BME280;63651;55.728;38.022;2023-12-20T22:03:28;97732.13;;;16.14;nan
75072;BME280;63651;55.728;38.022;2023-12-20T22:08:29;97731.81;;;16.15;nan
75072;BME280;63651;55.728;38.022;2023-12-20T22:13:30;97709.66;;;16.12;nan
75072;BME280;63651;55.728;38.022;2023-12-20T22:18:31;97699.81;;;16.11;nan
75072;BME280;63651;55.728;38.022;2023-12-20T22:23:32;97700.38;;;16.08;nan
75072;BME280;63651;55.728;38.022;2023-12-20T22:28:34;97694.06;;;16.12;nan
75072;BME280;63651;55.728;38.022;2023-12-20T22:33:35;97681.47;;;16.11;nan
75072;BME280;63651;55.728;38.022;2023-12-20T22:38:37;97669.41;;;16.12;nan
75072;BME280;63651;55.728;38.022;2023-12-20T22:43:39;97663.63;;;16.14;nan
75072;BME280;63651;55.728;38.022;2023-12-20T22:48:40;97659.50;;;16.16;nan
75072;BME280;63651;55.728;38.022;2023-12-20T22:53:41;97651.63;;;16.10;nan
75072;BME280;63651;55.728;38.022;2023-12-20T22:58:42;97643.41;;;16.10;nan
75072;BME280;63651;55.728;38.022;2023-12-20T23:03:43;97619.91;;;16.04;nan
75072;BME280;63651;55.728;38.022;2023-12-20T23:08:44;97628.03;;;16.14;nan
75072;BME280;63651;55.728;38.022;2023-12-20T23:13:45;97626.69;;;16.11;nan
75072;BME280;63651;55.728;38.022;2023-12-20T23:18:47;97625.28;;;16.14;nan
75072;BME280;63651;55.728;38.022;2023-12-20T23:23:48;97612.78;;;16.03;nan
75072;BME280;63651;55.728;38.022;2023-12-20T23:28:49;97629.19;;;16.08;nan
75072;BME280;63651;55.728;38.022;2023-12-20T23:33:53;97620.09;;;16.12;nan
75072;BME280;63651;55.728;38.022;2023-12-20T23:38:54;97619.63;;;16.05;nan
75072;BME280;63651;55.728;38.022;2023-12-20T23:43:55;97613.31;;;16.05;nan
75072;BME280;63651;55.728;38.022;2023-12-20T23:48:56;97614.72;;;16.02;nan
75072;BME280;63651;55.728;38.022;2023-12-20T23:53:57;97607.03;;;16.04;nan
75072;BME280;63651;55.728;38.022;2023-12-20T23:58:58;97601.31;;;16.00;nan
